Crown Princess — ZCDM6 — position and weather

sailwx.info

Track history (hours):
 
Tides and Currents Weather Stations Pressure Air Temp Water Temp Dewpoint Dewpoint Depression Visibility Wind Speed Wind Dir Waves Ship Positions

Crown Princess

Last reported at 2017-Jun-28 06:26 UTC. Time now 2017-Jun-28 06:55 UTC.
Position N 61°29' E 007°35'.

Type: Ship. MMSI: 310500000.

Date/timePositionNaut miles runAvg speedWind from/ knotsBaromVisibWave heightAir tempDewpointWater temp
2017-Jun-28 06:26N 61°29' E 007°35'0 0.0
2017-Jun-28 05:59N 61°29' E 007°35'0 0.0
2017-Jun-28 05:30N 61°29' E 007°35'2 4.7
2017-Jun-28 05:00N 61°27' E 007°32'613.0
2017-Jun-28 04:31N 61°22' E 007°23'611.9
2017-Jun-28 04:00N 61°17' E 007°18'175.2
2017-Jun-28 04:00N 61°18' E 007°18'714.0 060 / 71010.910.8 11.010.010.0
2017-Jun-28 03:31N 61°12' E 007°24'5 9.3
2017-Jun-28 03:00N 61°09' E 007°15'4315.8
2017-Jun-28 03:00N 61°06' E 007°12'4 9.2 060 / 71010.410.8 11.010.010.0
2017-Jun-28 02:30N 61°07' E 007°03'611.1
2017-Jun-28 02:00N 61°09' E 006°52'713.1
2017-Jun-28 01:30N 61°11' E 006°39'611.9
2017-Jun-28 01:00N 61°07' E 006°31'714.3
2017-Jun-28 00:30N 61°07' E 006°16'815.3
2017-Jun-28 00:00N 61°08' E 006°01'815.9
2017-Jun-27 23:30N 61°08' E 005°44'816.5
2017-Jun-27 23:00N 61°04' E 005°28'815.7
2017-Jun-27 22:30N 61°06' E 005°12'715.3
2017-Jun-27 22:00N 61°03' E 004°58'815.8
2017-Jun-27 21:30N 60°59' E 004°45'713.3
2017-Jun-27 21:00N 60°52' E 004°39'713.6
2017-Jun-27 20:30N 60°52' E 004°26'814.9
2017-Jun-27 20:00N 60°58' E 004°18'815.4
2017-Jun-27 19:30N 61°06' E 004°17'4515.2
2017-Jun-27 16:32N 61°51' E 004°24'116.2
2017-Jun-27 16:30N 61°52' E 004°25'815.7
2017-Jun-27 16:00N 61°59' E 004°28'815.9
2017-Jun-27 15:30N 62°07' E 004°31'18817.9
2017-Jun-27 05:00N 64°42' E 008°30'1615.8 320 / 241009.1 8.5 7.410.0
2017-Jun-27 04:00N 64°54' E 008°54'2120.7 320 / 391007.6 8.5 7.410.0
2017-Jun-27 03:00N 65°12' E 009°18'8820.0 320 / 321006.7 8.5 7.410.0
2017-Jun-26 22:37N 66°27' E 011°09'318.6
2017-Jun-26 22:28N 66°29' E 011°13'818.6
2017-Jun-26 22:00N 66°37' E 011°24'918.7
2017-Jun-26 21:30N 66°45' E 011°36'4619.0
2017-Jun-26 19:04N 67°24' E 012°36'119.2
2017-Jun-26 19:00N 67°26' E 012°38'1019.9
2017-Jun-26 18:30N 67°34' E 012°52'1019.7
2017-Jun-26 18:00N 67°42' E 013°06'1020.0
2017-Jun-26 17:30N 67°51' E 013°20'1019.3
2017-Jun-26 17:00N 67°59' E 013°33'713.3
2017-Jun-26 16:30N 68°06' E 013°36'1 2.2
2017-Jun-26 15:59N 68°07' E 013°36'0 0.0
2017-Jun-26 15:29N 68°07' E 013°36'0 0.0
2017-Jun-26 14:59N 68°07' E 013°36'0 0.0
2017-Jun-26 14:29N 68°07' E 013°36'0 0.0
2017-Jun-26 13:28N 68°07' E 013°36'0 0.0
2017-Jun-26 12:55N 68°07' E 013°36'0 0.0
2017-Jun-26 12:28N 68°07' E 013°36'0 0.0
2017-Jun-26 08:23N 68°07' E 013°36'0 0.0
2017-Jun-26 07:59N 68°07' E 013°36'0 0.0
2017-Jun-26 07:29N 68°07' E 013°36'0 0.0
2017-Jun-26 06:58N 68°07' E 013°36'0 0.0
2017-Jun-26 06:25N 68°07' E 013°36'1 2.6
2017-Jun-26 06:00N 68°06' E 013°36'815.7
2017-Jun-26 05:30N 67°59' E 013°27'917.9
2017-Jun-26 05:00N 67°52' E 013°11'5516.0
2017-Jun-26 05:00N 67°48' E 013°06'612.1 350 / 30991.510.8 6.0 3.6 8.0
2017-Jun-26 04:30N 67°48' E 012°50'816.2
2017-Jun-26 04:00N 67°54' E 012°36'815.6
2017-Jun-26 03:30N 68°02' E 012°38'816.3
2017-Jun-26 03:00N 68°09' E 012°48'4359.3
2017-Jun-26 03:00N 68°06' E 012°42'1225.0 020 / 30992.810.8 6.0 3.6 8.0
2017-Jun-26 02:30N 68°17' E 012°58'816.5
2017-Jun-26 02:00N 68°24' E 013°08'917.5
2017-Jun-26 01:30N 68°32' E 013°19'919.2
2017-Jun-26 01:00N 68°40' E 013°32'1019.2
2017-Jun-26 00:30N 68°49' E 013°44'1019.3
2017-Jun-26 00:00N 68°57' E 014°00'919.1
2017-Jun-25 23:30N 69°04' E 014°17'918.2
2017-Jun-25 23:00N 69°10' E 014°36'918.8
2017-Jun-25 22:30N 69°14' E 014°59'918.4
2017-Jun-25 22:00N 69°19' E 015°22'918.2
2017-Jun-25 21:30N 69°23' E 015°45'918.3
2017-Jun-25 21:00N 69°27' E 016°08'918.9
2017-Jun-25 20:30N 69°32' E 016°32'918.8
2017-Jun-25 20:00N 69°36' E 016°55'918.3
2017-Jun-25 19:30N 69°41' E 017°19'918.8
2017-Jun-25 19:00N 69°43' E 017°45'918.4
2017-Jun-25 18:30N 69°46' E 018°10'917.7
2017-Jun-25 18:00N 69°49' E 018°35'510.8
2017-Jun-25 17:30N 69°54' E 018°38'612.6
2017-Jun-25 17:00N 69°51' E 018°55'613.0
2017-Jun-25 16:30N 69°46' E 019°04'510.2
2017-Jun-25 16:00N 69°41' E 018°60'0 0.0
2017-Jun-25 15:29N 69°41' E 018°60'0 0.0
2017-Jun-25 14:59N 69°41' E 018°60'0 0.0
2017-Jun-25 14:29N 69°41' E 018°60'0 0.0
2017-Jun-25 13:29N 69°41' E 018°60'0 0.0
2017-Jun-25 12:58N 69°41' E 018°60'0 0.0
2017-Jun-25 12:25N 69°41' E 018°60'0 0.0
2017-Jun-25 11:55N 69°41' E 018°60'0 0.0
2017-Jun-25 11:28N 69°41' E 018°60'0 0.0
2017-Jun-25 11:00N 69°41' E 018°60'0 0.0
2017-Jun-25 10:30N 69°41' E 018°60'0 0.0
2017-Jun-25 10:00N 69°41' E 018°60'0 0.0
2017-Jun-25 09:30N 69°41' E 018°60'0 0.0
2017-Jun-25 09:00N 69°41' E 018°60'0 0.0
2017-Jun-25 08:29N 69°41' E 018°60'0 0.0
2017-Jun-25 07:59N 69°41' E 018°60'0 0.0
2017-Jun-25 07:29N 69°41' E 018°60'0 0.0
2017-Jun-25 06:59N 69°41' E 018°60'0 0.0
2017-Jun-25 06:28N 69°41' E 018°60'1 2.5
2017-Jun-25 05:59N 69°42' E 019°02'611.7
2017-Jun-25 05:30N 69°46' E 019°11'817.3
2017-Jun-25 05:01N 69°49' E 019°34'2111.9
2017-Jun-25 05:00N 69°48' E 019°30'1020.4 050 / 2995.410.8 8.0 5.8 7.0
2017-Jun-25 04:30N 69°54' E 019°53'817.2
2017-Jun-25 04:00N 70°02' E 020°06'2143.9
2017-Jun-25 04:00N 70°00' E 020°06'1020.4 250 / 8995.410.8 8.0 5.8 7.0
2017-Jun-25 03:30N 70°09' E 020°17'816.9
2017-Jun-25 03:00N 70°17' E 020°26'5754.6
2017-Jun-25 03:00N 70°12' E 020°24'1427.8 190 / 8995.110.8 8.0 5.8 7.0
2017-Jun-25 02:30N 70°25' E 020°35'917.3
2017-Jun-25 02:00N 70°33' E 020°44'2716.1
2017-Jun-25 00:18N 70°54' E 021°39'516.3
2017-Jun-25 00:01N 70°56' E 021°52'816.3
2017-Jun-24 23:30N 71°00' E 022°14'816.3
2017-Jun-24 23:00N 71°04' E 022°36'816.1
2017-Jun-24 22:30N 71°06' E 023°00'816.9
2017-Jun-24 22:00N 71°09' E 023°25'919.1
2017-Jun-24 21:30N 71°11' E 023°53'1019.4
2017-Jun-24 21:00N 71°12' E 024°23'1019.5
2017-Jun-24 20:30N 71°12' E 024°53'1019.7
2017-Jun-24 20:00N 71°13' E 025°24'1019.0
2017-Jun-24 19:30N 71°11' E 025°53'1019.5
2017-Jun-24 19:01N 71°06' E 026°19'917.8
2017-Jun-24 18:30N 70°58' E 026°10'4 8.3
2017-Jun-24 18:00N 70°59' E 025°58'0 0.0
2017-Jun-24 17:28N 70°59' E 025°58'0 0.0
2017-Jun-24 16:58N 70°59' E 025°58'0 0.0
2017-Jun-24 16:28N 70°59' E 025°58'0 0.0
2017-Jun-24 15:58N 70°59' E 025°58'0 0.0
2017-Jun-24 15:30N 70°59' E 025°58'0 0.0
2017-Jun-24 15:00N 70°59' E 025°58'0 0.0
2017-Jun-24 14:00N 70°59' E 025°58'0 0.0
2017-Jun-24 13:30N 70°59' E 025°58'0 0.0
2017-Jun-24 12:59N 70°59' E 025°58'0 0.0
2017-Jun-24 12:29N 70°59' E 025°58'0 0.0
2017-Jun-24 11:59N 70°59' E 025°58'0 0.0
2017-Jun-24 11:29N 70°59' E 025°58'0 0.0
2017-Jun-24 10:59N 70°59' E 025°58'0 0.0
2017-Jun-24 10:28N 70°59' E 025°58'0 0.0
2017-Jun-24 09:58N 70°59' E 025°58'0 0.0
2017-Jun-24 09:28N 70°59' E 025°58'0 0.0
2017-Jun-24 08:58N 70°59' E 025°58'0 0.0
2017-Jun-24 08:31N 70°59' E 025°58'0 0.0
2017-Jun-24 08:00N 70°59' E 025°58'0 0.0
2017-Jun-24 07:27N 70°59' E 025°58'0 0.0
2017-Jun-24 07:00N 70°59' E 025°58'0 0.0
2017-Jun-24 06:27N 70°59' E 025°58'0 0.0
2017-Jun-24 05:59N 70°59' E 025°58'0 0.0
2017-Jun-24 05:29N 70°59' E 025°58'0 0.0
2017-Jun-24 04:59N 70°59' E 025°58'1 2.5
2017-Jun-24 04:30N 70°58' E 025°58'713.2
2017-Jun-24 03:59N 71°01' E 026°16'816.5
2017-Jun-24 03:30N 71°08' E 026°07'1019.7
2017-Jun-24 03:00N 71°13' E 025°39'190.1
2017-Jun-24 03:00N 71°12' E 025°36'918.7 020 / 81005.210.8 5.0-0.3 6.0
2017-Jun-24 02:30N 71°13' E 025°08'1020.1
2017-Jun-24 02:00N 71°12' E 024°37'1019.7
2017-Jun-24 01:30N 71°13' E 024°06'1019.9
2017-Jun-24 01:00N 71°10' E 023°37'1020.1
2017-Jun-24 00:30N 71°07' E 023°07'1020.3
2017-Jun-24 00:00N 71°04' E 022°36'1020.3
2017-Jun-23 23:30N 71°00' E 022°08'4619.2
2017-Jun-23 21:05N 70°41' E 019°58'218.9
2017-Jun-23 21:00N 70°41' E 019°54'918.7
2017-Jun-23 20:30N 70°37' E 019°28'919.0
2017-Jun-23 20:00N 70°33' E 019°02'918.9
2017-Jun-23 19:30N 70°29' E 018°36'6218.4
2017-Jun-23 16:06N 69°49' E 016°16'218.7
2017-Jun-23 16:00N 69°48' E 016°11'918.8
2017-Jun-23 15:30N 69°41' E 015°52'918.5
2017-Jun-23 15:00N 69°35' E 015°33'1817.9
2017-Jun-23 14:00N 69°23' E 014°56'917.7
2017-Jun-23 13:30N 69°16' E 014°37'918.3
2017-Jun-23 13:00N 69°09' E 014°22'918.3
2017-Jun-23 12:30N 69°02' E 014°06'918.2
2017-Jun-23 12:00N 68°55' E 013°51'918.0
2017-Jun-23 11:30N 68°47' E 013°36'917.9
2017-Jun-23 11:00N 68°40' E 013°21'918.2
2017-Jun-23 10:30N 68°33' E 013°06'918.4
2017-Jun-23 10:00N 68°26' E 012°51'918.3
2017-Jun-23 09:30N 68°19' E 012°36'918.3
2017-Jun-23 09:00N 68°11' E 012°21'13032.3
2017-Jun-23 05:00N 66°06' E 010°54'3636.3 070 / 261005.510.8 20.0-21.311.0
2017-Jun-23 04:00N 66°42' E 010°42'1212.2 060 / 221005.510.8 20.0-21.311.0
2017-Jun-23 03:00N 66°30' E 010°36'13319.0 060 / 171005.510.8 20.0-21.315.0
2017-Jun-22 19:59N 64°19' E 009°38'918.3
2017-Jun-22 19:31N 64°11' E 009°33'918.2
2017-Jun-22 19:00N 64°02' E 009°27'918.3
2017-Jun-22 18:30N 63°53' E 009°21'918.3
2017-Jun-22 18:00N 63°44' E 009°15'714.2
2017-Jun-22 17:30N 63°37' E 009°18'817.2
2017-Jun-22 17:01N 63°39' E 009°37'3149.3
2017-Jun-22 17:00N 63°36' E 009°36'510.8 360 / 51005.710.8 15.0 8.010.0
2017-Jun-22 16:30N 63°36' E 009°48'1019.3
2017-Jun-22 16:00N 63°28' E 009°59'4272.4
2017-Jun-22 16:00N 63°24' E 009°54'1225.1 070 / 121006.210.8 15.0 8.010.0
2017-Jun-22 15:31N 63°27' E 010°20'2 3.6
2017-Jun-22 14:59N 63°26' E 010°24'0 0.0
2017-Jun-22 13:59N 63°26' E 010°24'0 0.0
2017-Jun-22 13:30N 63°26' E 010°24'0 0.2
2017-Jun-22 13:00N 63°27' E 010°24'0 0.2
2017-Jun-22 12:29N 63°26' E 010°24'0 0.0
2017-Jun-22 11:58N 63°26' E 010°24'0 0.0
2017-Jun-22 11:28N 63°26' E 010°24'0 0.0
2017-Jun-22 10:58N 63°26' E 010°24'0 0.0
2017-Jun-22 10:28N 63°26' E 010°24'0 0.0
2017-Jun-22 10:00N 63°26' E 010°24'0 0.0
2017-Jun-22 09:30N 63°26' E 010°24'0 0.0
2017-Jun-22 09:00N 63°26' E 010°24'0 0.0
2017-Jun-22 08:30N 63°26' E 010°24'0 0.0
2017-Jun-22 08:00N 63°26' E 010°24'0 0.0
2017-Jun-22 07:29N 63°26' E 010°24'0 0.0
2017-Jun-22 06:59N 63°26' E 010°24'0 0.0
2017-Jun-22 06:29N 63°26' E 010°24'0 0.0
2017-Jun-22 05:59N 63°26' E 010°24'0 0.0
2017-Jun-22 05:29N 63°26' E 010°24'2 3.4
2017-Jun-22 05:00N 63°27' E 010°21'917.2
2017-Jun-22 04:30N 63°28' E 010°01'612.9
2017-Jun-22 04:01N 63°33' E 009°52'3183.5
2017-Jun-22 04:00N 63°30' E 009°54'1020.2 130 / 51011.710.8 8.0 6.9 8.0
2017-Jun-22 03:30N 63°39' E 009°46'612.1
2017-Jun-22 03:00N 63°37' E 009°34'2106.7
2017-Jun-22 03:00N 63°36' E 009°36'815.0 210 / 21012.110.8 8.0 6.9 8.0
2017-Jun-22 02:29N 63°33' E 009°20'714.3
2017-Jun-22 02:00N 63°30' E 009°06'714.6
2017-Jun-22 01:30N 63°27' E 008°51'714.2
2017-Jun-22 01:00N 63°25' E 008°36'713.9
2017-Jun-22 00:30N 63°22' E 008°23'714.7
2017-Jun-22 00:00N 63°17' E 008°10'815.6
2017-Jun-21 23:30N 63°13' E 007°55'611.6
2017-Jun-21 23:01N 63°14' E 007°42'611.8
2017-Jun-21 22:31N 63°15' E 007°29'713.3
2017-Jun-21 22:01N 63°14' E 007°15'713.1
2017-Jun-21 21:31N 63°12' E 007°00'713.3
2017-Jun-21 21:00N 63°11' E 006°46'713.2
2017-Jun-21 20:30N 63°09' E 006°31'3112.8
2017-Jun-21 18:07N 62°50' E 005°39'113.3
2017-Jun-21 18:00N 62°49' E 005°39'712.9
2017-Jun-21 17:30N 62°42' E 005°39'713.3
2017-Jun-21 17:00N 62°35' E 005°39'612.0
2017-Jun-21 16:30N 62°30' E 005°45'712.7
2017-Jun-21 15:59N 62°27' E 005°58'510.5
2017-Jun-21 15:29N 62°27' E 006°09'1 2.1
2017-Jun-21 15:00N 62°28' E 006°09'0 0.0
2017-Jun-21 14:30N 62°28' E 006°09'0 0.0
2017-Jun-21 11:37N 62°28' E 006°09'0 0.0
2017-Jun-21 10:58N 62°28' E 006°09'0 0.0
2017-Jun-21 05:17N 62°28' E 006°09'6 8.6
2017-Jun-21 04:34N 62°27' E 005°56'315.6
2017-Jun-21 04:23N 62°28' E 005°50'410.9
2017-Jun-21 04:00N 62°30' E 005°42'2020.3 240 / 151017.510.8 8.5 6.311.0
2017-Jun-21 03:00N 62°24' E 005°00'7115.1 290 / 31017.610.8 8.5 6.311.0
2017-Jun-20 22:18N 61°16' E 004°17'518.0
2017-Jun-20 22:00N 61°11' E 004°21'917.6
2017-Jun-20 21:30N 61°02' E 004°26'815.2
2017-Jun-20 21:00N 60°59' E 004°39'1020.6
2017-Jun-20 20:29N 61°03' E 004°58'1218.1
2017-Jun-20 19:49N 61°03' E 005°23'619.4
2017-Jun-20 19:29N 61°06' E 005°35'1119.4
2017-Jun-20 18:54N 61°08' E 005°58'819.2
2017-Jun-20 18:30N 61°08' E 006°14'917.7
2017-Jun-20 18:00N 61°07' E 006°33'714.4
2017-Jun-20 17:30N 61°10' E 006°46'917.8
2017-Jun-20 17:00N 61°04' E 007°01'42092.3
2017-Jun-20 17:00N 61°00' E 007°00'510.9 310 / 181015.810.8 14.5 4.9 9.0
2017-Jun-20 16:30N 60°57' E 007°09'5 9.2
2017-Jun-20 16:00N 60°52' E 007°08'0 0.9
2017-Jun-20 15:30N 60°52' E 007°07'0 0.0
2017-Jun-20 14:59N 60°52' E 007°07'0 0.0
2017-Jun-20 14:29N 60°52' E 007°07'0 0.0
2017-Jun-20 13:30N 60°52' E 007°07'0 0.0
2017-Jun-20 13:00N 60°52' E 007°07'0 0.0
2017-Jun-20 12:30N 60°52' E 007°07'0 0.0
2017-Jun-20 11:59N 60°52' E 007°07'0 0.0
2017-Jun-20 11:30N 60°52' E 007°07'0 0.0
2017-Jun-20 11:00N 60°52' E 007°07'0 0.0
2017-Jun-20 10:30N 60°52' E 007°07'0 0.0
2017-Jun-20 10:00N 60°52' E 007°07'0 0.0
2017-Jun-20 09:30N 60°52' E 007°07'0 0.0
2017-Jun-20 08:59N 60°52' E 007°07'0 0.0
2017-Jun-20 08:29N 60°52' E 007°07'0 0.0
2017-Jun-20 07:59N 60°52' E 007°07'0 0.0
2017-Jun-20 07:29N 60°52' E 007°07'0 0.0
2017-Jun-20 06:59N 60°52' E 007°07'0 0.0
2017-Jun-20 06:28N 60°52' E 007°07'0 0.0
2017-Jun-20 05:55N 60°52' E 007°07'0 0.0
2017-Jun-20 05:30N 60°52' E 007°07'1 2.2
2017-Jun-20 05:00N 60°53' E 007°08'5 9.5
2017-Jun-20 04:30N 60°57' E 007°07'714.2
2017-Jun-20 04:00N 61°04' E 007°01'714.8
2017-Jun-20 03:30N 61°09' E 006°50'815.4
2017-Jun-20 03:00N 61°06' E 006°36'55548.7 190 / 251012.410.8 11.0 6.810.0
2017-Jun-20 02:59N 61°11' E 006°35'714.1
2017-Jun-20 02:30N 61°06' E 006°25'815.9
2017-Jun-20 02:00N 61°08' E 006°10'816.3
2017-Jun-20 01:29N 61°09' E 005°52'917.2
2017-Jun-20 00:56N 61°05' E 005°34'1015.6
2017-Jun-20 00:20N 61°05' E 005°14'515.7
2017-Jun-20 00:00N 61°05' E 005°03'917.1
2017-Jun-19 23:30N 61°00' E 004°48'816.1
2017-Jun-19 23:00N 60°54' E 004°40'714.4
2017-Jun-19 22:30N 60°48' E 004°30'816.5
2017-Jun-19 22:00N 60°40' E 004°29'714.5
2017-Jun-19 21:30N 60°33' E 004°27'917.5
2017-Jun-19 21:00N 60°24' E 004°26'4618.2
2017-Jun-19 18:28N 59°38' E 004°40'818.2
2017-Jun-19 18:00N 59°30' E 004°47'917.7
2017-Jun-19 17:30N 59°22' E 004°54'917.5
2017-Jun-19 17:00N 59°14' E 005°01'2279.5
2017-Jun-19 17:00N 59°12' E 005°00'715.0 010 / 211015.110.8 17.011.513.0
2017-Jun-19 16:30N 59°06' E 005°09'918.1
2017-Jun-19 16:01N 59°07' E 005°26'816.9
2017-Jun-19 15:31N 59°02' E 005°38'4 8.7
2017-Jun-19 15:00N 58°58' E 005°44'0 0.1
2017-Jun-19 13:59N 58°58' E 005°44'0 0.0
2017-Jun-19 13:29N 58°58' E 005°44'0 0.0
2017-Jun-19 12:58N 58°58' E 005°44'0 0.0
2017-Jun-19 12:28N 58°58' E 005°44'0 0.0
2017-Jun-19 11:58N 58°58' E 005°44'0 0.0
2017-Jun-19 11:28N 58°58' E 005°44'0 0.0
2017-Jun-19 11:00N 58°58' E 005°44'0 0.0
2017-Jun-19 10:30N 58°58' E 005°44'0 0.0
2017-Jun-19 10:00N 58°58' E 005°44'0 0.0
2017-Jun-19 09:30N 58°58' E 005°44'0 0.0
2017-Jun-19 09:00N 58°58' E 005°44'0 0.0
2017-Jun-19 08:29N 58°58' E 005°44'0 0.0
2017-Jun-19 07:59N 58°58' E 005°44'0 0.0
2017-Jun-19 07:29N 58°58' E 005°44'0 0.0
2017-Jun-19 06:59N 58°58' E 005°44'0 0.0
2017-Jun-19 06:28N 58°58' E 005°44'0 0.0
2017-Jun-19 05:58N 58°58' E 005°44'0 0.4
2017-Jun-19 05:30N 58°59' E 005°44'4 7.6
2017-Jun-19 05:00N 59°01' E 005°39'4 7.5
2017-Jun-19 04:31N 58°59' E 005°33'815.7
2017-Jun-19 04:00N 58°51' E 005°31'713.8
2017-Jun-19 03:30N 58°46' E 005°21'917.2
2017-Jun-19 03:00N 58°40' E 005°10'2143.2
2017-Jun-19 03:00N 58°42' E 005°12'1121.9 330 / 61020.810.8 18.414.314.0
2017-Jun-19 02:30N 58°32' E 005°05'33218.2
2017-Jun-18 08:14N 53°09' E 002°44'520.1
2017-Jun-18 08:00N 53°05' E 002°41'1020.9
2017-Jun-18 07:30N 52°54' E 002°41'1422.2
2017-Jun-18 06:53N 52°41' E 002°41'922.1
2017-Jun-18 06:28N 52°31' E 002°41'  
Track history (hours):
 
Tides and Currents Weather Stations Pressure Air Temp Water Temp Dewpoint Dewpoint Depression Visibility Wind Speed Wind Dir Waves Ship Positions

Crown Princess

Last reported at 2017-Jun-28 06:26 UTC. Time now 2017-Jun-28 06:55 UTC.
Position N 61°29' E 007°35'.

Type: Ship. MMSI: 310500000.

Date/timePositionNaut miles runAvg speedWind from/ knotsBaromVisibWave heightAir tempDewpointWater temp
2017-Jun-28 06:26N 61°29' E 007°35'0 0.0
2017-Jun-28 05:59N 61°29' E 007°35'0 0.0
2017-Jun-28 05:30N 61°29' E 007°35'2 4.7
2017-Jun-28 05:00N 61°27' E 007°32'613.0
2017-Jun-28 04:31N 61°22' E 007°23'611.9
2017-Jun-28 04:00N 61°17' E 007°18'175.2
2017-Jun-28 04:00N 61°18' E 007°18'714.0 060 / 71010.910.8 11.010.010.0
2017-Jun-28 03:31N 61°12' E 007°24'5 9.3
2017-Jun-28 03:00N 61°09' E 007°15'4315.8
2017-Jun-28 03:00N 61°06' E 007°12'4 9.2 060 / 71010.410.8 11.010.010.0
2017-Jun-28 02:30N 61°07' E 007°03'611.1
2017-Jun-28 02:00N 61°09' E 006°52'713.1
2017-Jun-28 01:30N 61°11' E 006°39'611.9
2017-Jun-28 01:00N 61°07' E 006°31'714.3
2017-Jun-28 00:30N 61°07' E 006°16'815.3
2017-Jun-28 00:00N 61°08' E 006°01'815.9
2017-Jun-27 23:30N 61°08' E 005°44'816.5
2017-Jun-27 23:00N 61°04' E 005°28'815.7
2017-Jun-27 22:30N 61°06' E 005°12'715.3
2017-Jun-27 22:00N 61°03' E 004°58'815.8
2017-Jun-27 21:30N 60°59' E 004°45'713.3
2017-Jun-27 21:00N 60°52' E 004°39'713.6
2017-Jun-27 20:30N 60°52' E 004°26'814.9
2017-Jun-27 20:00N 60°58' E 004°18'815.4
2017-Jun-27 19:30N 61°06' E 004°17'4515.2
2017-Jun-27 16:32N 61°51' E 004°24'116.2
2017-Jun-27 16:30N 61°52' E 004°25'815.7
2017-Jun-27 16:00N 61°59' E 004°28'815.9
2017-Jun-27 15:30N 62°07' E 004°31'18817.9
2017-Jun-27 05:00N 64°42' E 008°30'1615.8 320 / 241009.1 8.5 7.410.0
2017-Jun-27 04:00N 64°54' E 008°54'2120.7 320 / 391007.6 8.5 7.410.0
2017-Jun-27 03:00N 65°12' E 009°18'8820.0 320 / 321006.7 8.5 7.410.0
2017-Jun-26 22:37N 66°27' E 011°09'318.6
2017-Jun-26 22:28N 66°29' E 011°13'818.6
2017-Jun-26 22:00N 66°37' E 011°24'918.7
2017-Jun-26 21:30N 66°45' E 011°36'4619.0
2017-Jun-26 19:04N 67°24' E 012°36'119.2
2017-Jun-26 19:00N 67°26' E 012°38'1019.9
2017-Jun-26 18:30N 67°34' E 012°52'1019.7
2017-Jun-26 18:00N 67°42' E 013°06'1020.0
2017-Jun-26 17:30N 67°51' E 013°20'1019.3
2017-Jun-26 17:00N 67°59' E 013°33'713.3
2017-Jun-26 16:30N 68°06' E 013°36'1 2.2
2017-Jun-26 15:59N 68°07' E 013°36'0 0.0
2017-Jun-26 15:29N 68°07' E 013°36'0 0.0
2017-Jun-26 14:59N 68°07' E 013°36'0 0.0
2017-Jun-26 14:29N 68°07' E 013°36'0 0.0
2017-Jun-26 13:28N 68°07' E 013°36'0 0.0
2017-Jun-26 12:55N 68°07' E 013°36'0 0.0
2017-Jun-26 12:28N 68°07' E 013°36'0 0.0
2017-Jun-26 08:23N 68°07' E 013°36'0 0.0
2017-Jun-26 07:59N 68°07' E 013°36'0 0.0
2017-Jun-26 07:29N 68°07' E 013°36'0 0.0
2017-Jun-26 06:58N 68°07' E 013°36'0 0.0
2017-Jun-26 06:25N 68°07' E 013°36'1 2.6
2017-Jun-26 06:00N 68°06' E 013°36'815.7
2017-Jun-26 05:30N 67°59' E 013°27'917.9
2017-Jun-26 05:00N 67°52' E 013°11'5516.0
2017-Jun-26 05:00N 67°48' E 013°06'612.1 350 / 30991.510.8 6.0 3.6 8.0
2017-Jun-26 04:30N 67°48' E 012°50'816.2
2017-Jun-26 04:00N 67°54' E 012°36'815.6
2017-Jun-26 03:30N 68°02' E 012°38'816.3
2017-Jun-26 03:00N 68°09' E 012°48'4359.3
2017-Jun-26 03:00N 68°06' E 012°42'1225.0 020 / 30992.810.8 6.0 3.6 8.0
2017-Jun-26 02:30N 68°17' E 012°58'816.5
2017-Jun-26 02:00N 68°24' E 013°08'917.5
2017-Jun-26 01:30N 68°32' E 013°19'919.2
2017-Jun-26 01:00N 68°40' E 013°32'1019.2
2017-Jun-26 00:30N 68°49' E 013°44'1019.3
2017-Jun-26 00:00N 68°57' E 014°00'919.1
2017-Jun-25 23:30N 69°04' E 014°17'918.2
2017-Jun-25 23:00N 69°10' E 014°36'918.8
2017-Jun-25 22:30N 69°14' E 014°59'918.4
2017-Jun-25 22:00N 69°19' E 015°22'918.2
2017-Jun-25 21:30N 69°23' E 015°45'918.3
2017-Jun-25 21:00N 69°27' E 016°08'918.9
2017-Jun-25 20:30N 69°32' E 016°32'918.8
2017-Jun-25 20:00N 69°36' E 016°55'918.3
2017-Jun-25 19:30N 69°41' E 017°19'918.8
2017-Jun-25 19:00N 69°43' E 017°45'918.4
2017-Jun-25 18:30N 69°46' E 018°10'917.7
2017-Jun-25 18:00N 69°49' E 018°35'510.8
2017-Jun-25 17:30N 69°54' E 018°38'612.6
2017-Jun-25 17:00N 69°51' E 018°55'613.0
2017-Jun-25 16:30N 69°46' E 019°04'510.2
2017-Jun-25 16:00N 69°41' E 018°60'0 0.0
2017-Jun-25 15:29N 69°41' E 018°60'0 0.0
2017-Jun-25 14:59N 69°41' E 018°60'0 0.0
2017-Jun-25 14:29N 69°41' E 018°60'0 0.0
2017-Jun-25 13:29N 69°41' E 018°60'0 0.0
2017-Jun-25 12:58N 69°41' E 018°60'0 0.0
2017-Jun-25 12:25N 69°41' E 018°60'0 0.0
2017-Jun-25 11:55N 69°41' E 018°60'0 0.0
2017-Jun-25 11:28N 69°41' E 018°60'0 0.0
2017-Jun-25 11:00N 69°41' E 018°60'0 0.0
2017-Jun-25 10:30N 69°41' E 018°60'0 0.0
2017-Jun-25 10:00N 69°41' E 018°60'0 0.0
2017-Jun-25 09:30N 69°41' E 018°60'0 0.0
2017-Jun-25 09:00N 69°41' E 018°60'0 0.0
2017-Jun-25 08:29N 69°41' E 018°60'0 0.0
2017-Jun-25 07:59N 69°41' E 018°60'0 0.0
2017-Jun-25 07:29N 69°41' E 018°60'0 0.0
2017-Jun-25 06:59N 69°41' E 018°60'0 0.0
2017-Jun-25 06:28N 69°41' E 018°60'1 2.5
2017-Jun-25 05:59N 69°42' E 019°02'611.7
2017-Jun-25 05:30N 69°46' E 019°11'817.3
2017-Jun-25 05:01N 69°49' E 019°34'2111.9
2017-Jun-25 05:00N 69°48' E 019°30'1020.4 050 / 2995.410.8 8.0 5.8 7.0
2017-Jun-25 04:30N 69°54' E 019°53'817.2
2017-Jun-25 04:00N 70°02' E 020°06'2143.9
2017-Jun-25 04:00N 70°00' E 020°06'1020.4 250 / 8995.410.8 8.0 5.8 7.0
2017-Jun-25 03:30N 70°09' E 020°17'816.9
2017-Jun-25 03:00N 70°17' E 020°26'5754.6
2017-Jun-25 03:00N 70°12' E 020°24'1427.8 190 / 8995.110.8 8.0 5.8 7.0
2017-Jun-25 02:30N 70°25' E 020°35'917.3
2017-Jun-25 02:00N 70°33' E 020°44'2716.1
2017-Jun-25 00:18N 70°54' E 021°39'516.3
2017-Jun-25 00:01N 70°56' E 021°52'816.3
2017-Jun-24 23:30N 71°00' E 022°14'816.3
2017-Jun-24 23:00N 71°04' E 022°36'816.1
2017-Jun-24 22:30N 71°06' E 023°00'816.9
2017-Jun-24 22:00N 71°09' E 023°25'919.1
2017-Jun-24 21:30N 71°11' E 023°53'1019.4
2017-Jun-24 21:00N 71°12' E 024°23'1019.5
2017-Jun-24 20:30N 71°12' E 024°53'1019.7
2017-Jun-24 20:00N 71°13' E 025°24'1019.0
2017-Jun-24 19:30N 71°11' E 025°53'1019.5
2017-Jun-24 19:01N 71°06' E 026°19'917.8
2017-Jun-24 18:30N 70°58' E 026°10'4 8.3
2017-Jun-24 18:00N 70°59' E 025°58'0 0.0
2017-Jun-24 17:28N 70°59' E 025°58'0 0.0
2017-Jun-24 16:58N 70°59' E 025°58'0 0.0
2017-Jun-24 16:28N 70°59' E 025°58'0 0.0
2017-Jun-24 15:58N 70°59' E 025°58'0 0.0
2017-Jun-24 15:30N 70°59' E 025°58'0 0.0
2017-Jun-24 15:00N 70°59' E 025°58'0 0.0
2017-Jun-24 14:00N 70°59' E 025°58'0 0.0
2017-Jun-24 13:30N 70°59' E 025°58'0 0.0
2017-Jun-24 12:59N 70°59' E 025°58'0 0.0
2017-Jun-24 12:29N 70°59' E 025°58'0 0.0
2017-Jun-24 11:59N 70°59' E 025°58'0 0.0
2017-Jun-24 11:29N 70°59' E 025°58'0 0.0
2017-Jun-24 10:59N 70°59' E 025°58'0 0.0
2017-Jun-24 10:28N 70°59' E 025°58'0 0.0
2017-Jun-24 09:58N 70°59' E 025°58'0 0.0
2017-Jun-24 09:28N 70°59' E 025°58'0 0.0
2017-Jun-24 08:58N 70°59' E 025°58'0 0.0
2017-Jun-24 08:31N 70°59' E 025°58'0 0.0
2017-Jun-24 08:00N 70°59' E 025°58'0 0.0
2017-Jun-24 07:27N 70°59' E 025°58'0 0.0
2017-Jun-24 07:00N 70°59' E 025°58'0 0.0
2017-Jun-24 06:27N 70°59' E 025°58'0 0.0
2017-Jun-24 05:59N 70°59' E 025°58'0 0.0
2017-Jun-24 05:29N 70°59' E 025°58'0 0.0
2017-Jun-24 04:59N 70°59' E 025°58'1 2.5
2017-Jun-24 04:30N 70°58' E 025°58'713.2
2017-Jun-24 03:59N 71°01' E 026°16'816.5
2017-Jun-24 03:30N 71°08' E 026°07'1019.7
2017-Jun-24 03:00N 71°13' E 025°39'190.1
2017-Jun-24 03:00N 71°12' E 025°36'918.7 020 / 81005.210.8 5.0-0.3 6.0
2017-Jun-24 02:30N 71°13' E 025°08'1020.1
2017-Jun-24 02:00N 71°12' E 024°37'1019.7
2017-Jun-24 01:30N 71°13' E 024°06'1019.9
2017-Jun-24 01:00N 71°10' E 023°37'1020.1
2017-Jun-24 00:30N 71°07' E 023°07'1020.3
2017-Jun-24 00:00N 71°04' E 022°36'1020.3
2017-Jun-23 23:30N 71°00' E 022°08'4619.2
2017-Jun-23 21:05N 70°41' E 019°58'218.9
2017-Jun-23 21:00N 70°41' E 019°54'918.7
2017-Jun-23 20:30N 70°37' E 019°28'919.0
2017-Jun-23 20:00N 70°33' E 019°02'918.9
2017-Jun-23 19:30N 70°29' E 018°36'6218.4
2017-Jun-23 16:06N 69°49' E 016°16'218.7
2017-Jun-23 16:00N 69°48' E 016°11'918.8
2017-Jun-23 15:30N 69°41' E 015°52'918.5
2017-Jun-23 15:00N 69°35' E 015°33'1817.9
2017-Jun-23 14:00N 69°23' E 014°56'917.7
2017-Jun-23 13:30N 69°16' E 014°37'918.3
2017-Jun-23 13:00N 69°09' E 014°22'918.3
2017-Jun-23 12:30N 69°02' E 014°06'918.2
2017-Jun-23 12:00N 68°55' E 013°51'918.0
2017-Jun-23 11:30N 68°47' E 013°36'917.9
2017-Jun-23 11:00N 68°40' E 013°21'918.2
2017-Jun-23 10:30N 68°33' E 013°06'918.4
2017-Jun-23 10:00N 68°26' E 012°51'918.3
2017-Jun-23 09:30N 68°19' E 012°36'918.3
2017-Jun-23 09:00N 68°11' E 012°21'13032.3
2017-Jun-23 05:00N 66°06' E 010°54'3636.3 070 / 261005.510.8 20.0-21.311.0
2017-Jun-23 04:00N 66°42' E 010°42'1212.2 060 / 221005.510.8 20.0-21.311.0
2017-Jun-23 03:00N 66°30' E 010°36'13319.0 060 / 171005.510.8 20.0-21.315.0
2017-Jun-22 19:59N 64°19' E 009°38'918.3
2017-Jun-22 19:31N 64°11' E 009°33'918.2
2017-Jun-22 19:00N 64°02' E 009°27'918.3
2017-Jun-22 18:30N 63°53' E 009°21'918.3
2017-Jun-22 18:00N 63°44' E 009°15'714.2
2017-Jun-22 17:30N 63°37' E 009°18'817.2
2017-Jun-22 17:01N 63°39' E 009°37'3149.3
2017-Jun-22 17:00N 63°36' E 009°36'510.8 360 / 51005.710.8 15.0 8.010.0
2017-Jun-22 16:30N 63°36' E 009°48'1019.3
2017-Jun-22 16:00N 63°28' E 009°59'4272.4
2017-Jun-22 16:00N 63°24' E 009°54'1225.1 070 / 121006.210.8 15.0 8.010.0
2017-Jun-22 15:31N 63°27' E 010°20'2 3.6
2017-Jun-22 14:59N 63°26' E 010°24'0 0.0
2017-Jun-22 13:59N 63°26' E 010°24'0 0.0
2017-Jun-22 13:30N 63°26' E 010°24'0 0.2
2017-Jun-22 13:00N 63°27' E 010°24'0 0.2
2017-Jun-22 12:29N 63°26' E 010°24'0 0.0
2017-Jun-22 11:58N 63°26' E 010°24'0 0.0
2017-Jun-22 11:28N 63°26' E 010°24'0 0.0
2017-Jun-22 10:58N 63°26' E 010°24'0 0.0
2017-Jun-22 10:28N 63°26' E 010°24'0 0.0
2017-Jun-22 10:00N 63°26' E 010°24'0 0.0
2017-Jun-22 09:30N 63°26' E 010°24'0 0.0
2017-Jun-22 09:00N 63°26' E 010°24'0 0.0
2017-Jun-22 08:30N 63°26' E 010°24'0 0.0
2017-Jun-22 08:00N 63°26' E 010°24'0 0.0
2017-Jun-22 07:29N 63°26' E 010°24'0 0.0
2017-Jun-22 06:59N 63°26' E 010°24'0 0.0
2017-Jun-22 06:29N 63°26' E 010°24'0 0.0
2017-Jun-22 05:59N 63°26' E 010°24'0 0.0
2017-Jun-22 05:29N 63°26' E 010°24'2 3.4
2017-Jun-22 05:00N 63°27' E 010°21'917.2
2017-Jun-22 04:30N 63°28' E 010°01'612.9
2017-Jun-22 04:01N 63°33' E 009°52'3183.5
2017-Jun-22 04:00N 63°30' E 009°54'1020.2 130 / 51011.710.8 8.0 6.9 8.0
2017-Jun-22 03:30N 63°39' E 009°46'612.1
2017-Jun-22 03:00N 63°37' E 009°34'2106.7
2017-Jun-22 03:00N 63°36' E 009°36'815.0 210 / 21012.110.8 8.0 6.9 8.0
2017-Jun-22 02:29N 63°33' E 009°20'714.3
2017-Jun-22 02:00N 63°30' E 009°06'714.6
2017-Jun-22 01:30N 63°27' E 008°51'714.2
2017-Jun-22 01:00N 63°25' E 008°36'713.9
2017-Jun-22 00:30N 63°22' E 008°23'714.7
2017-Jun-22 00:00N 63°17' E 008°10'815.6
2017-Jun-21 23:30N 63°13' E 007°55'611.6
2017-Jun-21 23:01N 63°14' E 007°42'611.8
2017-Jun-21 22:31N 63°15' E 007°29'713.3
2017-Jun-21 22:01N 63°14' E 007°15'713.1
2017-Jun-21 21:31N 63°12' E 007°00'713.3
2017-Jun-21 21:00N 63°11' E 006°46'713.2
2017-Jun-21 20:30N 63°09' E 006°31'3112.8
2017-Jun-21 18:07N 62°50' E 005°39'113.3
2017-Jun-21 18:00N 62°49' E 005°39'712.9
2017-Jun-21 17:30N 62°42' E 005°39'713.3
2017-Jun-21 17:00N 62°35' E 005°39'612.0
2017-Jun-21 16:30N 62°30' E 005°45'712.7
2017-Jun-21 15:59N 62°27' E 005°58'510.5
2017-Jun-21 15:29N 62°27' E 006°09'1 2.1
2017-Jun-21 15:00N 62°28' E 006°09'0 0.0
2017-Jun-21 14:30N 62°28' E 006°09'0 0.0
2017-Jun-21 11:37N 62°28' E 006°09'0 0.0
2017-Jun-21 10:58N 62°28' E 006°09'0 0.0
2017-Jun-21 05:17N 62°28' E 006°09'6 8.6
2017-Jun-21 04:34N 62°27' E 005°56'315.6
2017-Jun-21 04:23N 62°28' E 005°50'410.9
2017-Jun-21 04:00N 62°30' E 005°42'2020.3 240 / 151017.510.8 8.5 6.311.0
2017-Jun-21 03:00N 62°24' E 005°00'7115.1 290 / 31017.610.8 8.5 6.311.0
2017-Jun-20 22:18N 61°16' E 004°17'518.0
2017-Jun-20 22:00N 61°11' E 004°21'917.6
2017-Jun-20 21:30N 61°02' E 004°26'815.2
2017-Jun-20 21:00N 60°59' E 004°39'1020.6
2017-Jun-20 20:29N 61°03' E 004°58'1218.1
2017-Jun-20 19:49N 61°03' E 005°23'619.4
2017-Jun-20 19:29N 61°06' E 005°35'1119.4
2017-Jun-20 18:54N 61°08' E 005°58'819.2
2017-Jun-20 18:30N 61°08' E 006°14'917.7
2017-Jun-20 18:00N 61°07' E 006°33'714.4
2017-Jun-20 17:30N 61°10' E 006°46'917.8
2017-Jun-20 17:00N 61°04' E 007°01'42092.3
2017-Jun-20 17:00N 61°00' E 007°00'510.9 310 / 181015.810.8 14.5 4.9 9.0
2017-Jun-20 16:30N 60°57' E 007°09'5 9.2
2017-Jun-20 16:00N 60°52' E 007°08'0 0.9
2017-Jun-20 15:30N 60°52' E 007°07'0 0.0
2017-Jun-20 14:59N 60°52' E 007°07'0 0.0
2017-Jun-20 14:29N 60°52' E 007°07'0 0.0
2017-Jun-20 13:30N 60°52' E 007°07'0 0.0
2017-Jun-20 13:00N 60°52' E 007°07'0 0.0
2017-Jun-20 12:30N 60°52' E 007°07'0 0.0
2017-Jun-20 11:59N 60°52' E 007°07'0 0.0
2017-Jun-20 11:30N 60°52' E 007°07'0 0.0
2017-Jun-20 11:00N 60°52' E 007°07'0 0.0
2017-Jun-20 10:30N 60°52' E 007°07'0 0.0
2017-Jun-20 10:00N 60°52' E 007°07'0 0.0
2017-Jun-20 09:30N 60°52' E 007°07'0 0.0
2017-Jun-20 08:59N 60°52' E 007°07'0 0.0
2017-Jun-20 08:29N 60°52' E 007°07'0 0.0
2017-Jun-20 07:59N 60°52' E 007°07'0 0.0
2017-Jun-20 07:29N 60°52' E 007°07'0 0.0
2017-Jun-20 06:59N 60°52' E 007°07'0 0.0
2017-Jun-20 06:28N 60°52' E 007°07'0 0.0
2017-Jun-20 05:55N 60°52' E 007°07'0 0.0
2017-Jun-20 05:30N 60°52' E 007°07'1 2.2
2017-Jun-20 05:00N 60°53' E 007°08'5 9.5
2017-Jun-20 04:30N 60°57' E 007°07'714.2
2017-Jun-20 04:00N 61°04' E 007°01'714.8
2017-Jun-20 03:30N 61°09' E 006°50'815.4
2017-Jun-20 03:00N 61°06' E 006°36'55548.7 190 / 251012.410.8 11.0 6.810.0
2017-Jun-20 02:59N 61°11' E 006°35'714.1
2017-Jun-20 02:30N 61°06' E 006°25'815.9
2017-Jun-20 02:00N 61°08' E 006°10'816.3
2017-Jun-20 01:29N 61°09' E 005°52'917.2
2017-Jun-20 00:56N 61°05' E 005°34'1015.6
2017-Jun-20 00:20N 61°05' E 005°14'515.7
2017-Jun-20 00:00N 61°05' E 005°03'917.1
2017-Jun-19 23:30N 61°00' E 004°48'816.1
2017-Jun-19 23:00N 60°54' E 004°40'714.4
2017-Jun-19 22:30N 60°48' E 004°30'816.5
2017-Jun-19 22:00N 60°40' E 004°29'714.5
2017-Jun-19 21:30N 60°33' E 004°27'917.5
2017-Jun-19 21:00N 60°24' E 004°26'4618.2
2017-Jun-19 18:28N 59°38' E 004°40'818.2
2017-Jun-19 18:00N 59°30' E 004°47'917.7
2017-Jun-19 17:30N 59°22' E 004°54'917.5
2017-Jun-19 17:00N 59°14' E 005°01'2279.5
2017-Jun-19 17:00N 59°12' E 005°00'715.0 010 / 211015.110.8 17.011.513.0
2017-Jun-19 16:30N 59°06' E 005°09'918.1
2017-Jun-19 16:01N 59°07' E 005°26'816.9
2017-Jun-19 15:31N 59°02' E 005°38'4 8.7
2017-Jun-19 15:00N 58°58' E 005°44'0 0.1
2017-Jun-19 13:59N 58°58' E 005°44'0 0.0
2017-Jun-19 13:29N 58°58' E 005°44'0 0.0
2017-Jun-19 12:58N 58°58' E 005°44'0 0.0
2017-Jun-19 12:28N 58°58' E 005°44'0 0.0
2017-Jun-19 11:58N 58°58' E 005°44'0 0.0
2017-Jun-19 11:28N 58°58' E 005°44'0 0.0
2017-Jun-19 11:00N 58°58' E 005°44'0 0.0
2017-Jun-19 10:30N 58°58' E 005°44'0 0.0
2017-Jun-19 10:00N 58°58' E 005°44'0 0.0
2017-Jun-19 09:30N 58°58' E 005°44'0 0.0
2017-Jun-19 09:00N 58°58' E 005°44'0 0.0
2017-Jun-19 08:29N 58°58' E 005°44'0 0.0
2017-Jun-19 07:59N 58°58' E 005°44'0 0.0
2017-Jun-19 07:29N 58°58' E 005°44'0 0.0
2017-Jun-19 06:59N 58°58' E 005°44'0 0.0
2017-Jun-19 06:28N 58°58' E 005°44'0 0.0
2017-Jun-19 05:58N 58°58' E 005°44'0 0.4
2017-Jun-19 05:30N 58°59' E 005°44'4 7.6
2017-Jun-19 05:00N 59°01' E 005°39'4 7.5
2017-Jun-19 04:31N 58°59' E 005°33'815.7
2017-Jun-19 04:00N 58°51' E 005°31'713.8
2017-Jun-19 03:30N 58°46' E 005°21'917.2
2017-Jun-19 03:00N 58°40' E 005°10'2143.2
2017-Jun-19 03:00N 58°42' E 005°12'1121.9 330 / 61020.810.8 18.414.314.0
2017-Jun-19 02:30N 58°32' E 005°05'33218.2
2017-Jun-18 08:14N 53°09' E 002°44'520.1
2017-Jun-18 08:00N 53°05' E 002°41'1020.9
2017-Jun-18 07:30N 52°54' E 002°41'1422.2
2017-Jun-18 06:53N 52°41' E 002°41'922.1
2017-Jun-18 06:28N 52°31' E 002°41'  

Dump ship's entire track history